createdAt,value
2019-03-09T00:04:19.851Z,61.02
2019-03-09T00:09:25.896Z,60.91
2019-03-09T00:14:31.459Z,60.88
2019-03-09T00:19:37.000Z,60.29
2019-03-09T00:25:01.609Z,60.32
2019-03-09T00:30:30.429Z,60.04
2019-03-09T00:35:37.707Z,59.83
2019-03-09T00:40:45.111Z,59.27
2019-03-09T00:45:53.903Z,58.80
2019-03-09T00:50:59.516Z,58.45
2019-03-09T00:56:06.811Z,58.65
2019-03-09T01:01:12.346Z,57.95
2019-03-09T01:06:18.223Z,57.99
2019-03-09T01:11:26.598Z,57.58
2019-03-09T01:16:32.123Z,57.88
2019-03-09T01:21:37.664Z,57.84
2019-03-09T01:26:43.659Z,57.79
2019-03-09T01:31:49.103Z,58.10
2019-03-09T01:36:54.577Z,57.72
2019-03-09T01:42:00.294Z,58.11
2019-03-09T01:47:08.836Z,58.04
2019-03-09T01:52:15.727Z,57.67
2019-03-09T01:57:21.747Z,57.50
2019-03-09T02:02:27.184Z,57.17
2019-03-09T02:07:33.039Z,57.31
2019-03-09T02:12:38.852Z,57.39
2019-03-09T02:17:44.500Z,56.82
2019-03-09T02:22:50.317Z,57.39
2019-03-09T02:27:55.879Z,55.78
2019-03-09T02:33:01.366Z,56.15
2019-03-09T02:38:38.363Z,55.74
2019-03-09T02:43:43.901Z,55.96
2019-03-09T02:48:50.823Z,55.72
2019-03-09T02:53:56.329Z,55.51
2019-03-09T02:59:06.812Z,56.01
2019-03-09T03:04:12.657Z,56.67
2019-03-09T03:09:21.055Z,56.26
2019-03-09T03:14:27.076Z,56.24
2019-03-09T03:19:32.903Z,56.37
2019-03-09T03:24:38.760Z,55.54
2019-03-09T03:29:44.860Z,55.25
2019-03-09T03:34:59.284Z,55.07
2019-03-09T03:40:29.776Z,55.60
2019-03-09T03:45:35.871Z,56.12
2019-03-09T03:50:52.804Z,55.80
2019-03-09T03:55:59.292Z,56.22
2019-03-09T04:01:07.377Z,55.66
2019-03-09T04:06:16.852Z,55.07
2019-03-09T04:11:22.699Z,54.87
2019-03-09T04:16:28.606Z,54.33
2019-03-09T04:21:34.120Z,54.30
2019-03-09T04:26:39.765Z,54.28
2019-03-09T04:31:45.603Z,54.31
2019-03-09T04:37:01.191Z,54.09
2019-03-09T04:42:09.472Z,54.03
2019-03-09T04:47:15.314Z,54.07
2019-03-09T04:52:21.085Z,54.03
2019-03-09T04:57:27.367Z,53.54
2019-03-09T05:02:33.163Z,53.04
2019-03-09T05:08:13.739Z,53.22
2019-03-09T05:13:26.030Z,53.22
2019-03-09T05:18:32.148Z,52.78
2019-03-09T05:23:37.869Z,52.68
2019-03-09T05:28:43.331Z,52.69
2019-03-09T05:33:49.557Z,52.77
2019-03-09T05:38:56.074Z,52.72
2019-03-09T05:44:05.008Z,52.80
2019-03-09T05:49:10.756Z,53.22
2019-03-09T05:54:18.056Z,53.10
2019-03-09T05:59:23.704Z,52.96
2019-03-09T06:04:29.226Z,53.96
2019-03-09T06:09:35.400Z,55.70
2019-03-09T06:14:41.044Z,57.11
2019-03-09T06:19:46.809Z,58.56
2019-03-09T06:24:52.673Z,58.80
2019-03-09T06:29:58.136Z,58.17
2019-03-09T06:35:07.008Z,60.30
2019-03-09T06:40:12.664Z,60.47
2019-03-09T06:45:19.720Z,61.58
2019-03-09T06:50:25.772Z,61.58
2019-03-09T06:55:31.665Z,61.50
2019-03-09T07:00:43.172Z,63.87
2019-03-09T07:05:49.179Z,63.87
2019-03-09T07:10:55.240Z,64.79
2019-03-09T07:16:03.959Z,65.64
2019-03-09T07:21:10.096Z,65.15
2019-03-09T07:26:16.683Z,66.60
2019-03-09T07:31:22.247Z,66.78
2019-03-09T07:36:28.355Z,67.79
2019-03-09T07:41:34.218Z,67.36
2019-03-09T07:46:40.021Z,67.66
2019-03-09T07:51:45.858Z,67.72
2019-03-09T07:56:51.255Z,67.72
2019-03-09T08:01:56.911Z,67.50
2019-03-09T08:07:04.535Z,66.46
2019-03-09T08:12:10.454Z,65.97
2019-03-09T08:17:17.698Z,65.50
2019-03-09T08:22:23.588Z,64.30
2019-03-09T08:27:29.295Z,63.42
2019-03-09T08:32:34.926Z,62.65
2019-03-09T08:37:41.715Z,60.94
2019-03-09T08:42:47.785Z,59.54
2019-03-09T08:47:54.488Z,59.30
2019-03-09T08:53:02.818Z,56.99
2019-03-09T08:58:13.104Z,56.00
2019-03-09T09:03:18.799Z,57.01
2019-03-09T09:08:24.957Z,54.69
2019-03-09T09:13:30.508Z,54.38
2019-03-09T09:18:36.033Z,53.71
2019-03-09T09:23:44.332Z,53.02
2019-03-09T09:28:50.228Z,53.65
2019-03-09T09:33:58.360Z,53.25
2019-03-09T09:39:20.051Z,52.51
2019-03-09T09:44:25.990Z,52.78
2019-03-09T09:49:31.889Z,52.81
2019-03-09T09:54:38.077Z,52.69
2019-03-09T09:59:45.537Z,52.06
2019-03-09T10:04:53.455Z,52.56
2019-03-09T10:09:59.661Z,52.31
2019-03-09T10:15:09.384Z,52.34
2019-03-09T10:20:14.970Z,51.61
2019-03-09T10:25:22.338Z,50.33
2019-03-09T10:30:47.729Z,50.89
2019-03-09T10:35:54.971Z,50.12
2019-03-09T10:41:00.602Z,50.15
2019-03-09T10:46:08.078Z,49.96
2019-03-09T10:51:14.152Z,50.20
2019-03-09T10:56:19.778Z,48.85
2019-03-09T11:01:25.410Z,48.82
2019-03-09T11:06:31.298Z,48.58
2019-03-09T11:11:37.935Z,48.73
2019-03-09T11:16:44.088Z,48.06
2019-03-09T11:21:50.432Z,48.30
2019-03-09T11:26:56.448Z,48.01
2019-03-09T11:32:03.526Z,47.68
2019-03-09T11:37:09.196Z,48.15
2019-03-09T11:42:15.170Z,48.33
2019-03-09T11:47:26.562Z,47.89
2019-03-09T11:52:32.278Z,47.27
2019-03-09T11:57:37.951Z,47.05
2019-03-09T12:02:43.668Z,46.76
2019-03-09T12:07:51.990Z,46.80
2019-03-09T12:12:58.491Z,46.87
2019-03-09T12:18:07.104Z,47.01
2019-03-09T12:23:24.113Z,47.07
2019-03-09T12:28:31.850Z,47.30
2019-03-09T12:33:37.907Z,48.02
2019-03-09T12:38:48.832Z,51.42
2019-03-09T12:43:54.668Z,52.38
2019-03-09T12:49:03.828Z,52.07
2019-03-09T12:54:10.197Z,51.17
2019-03-09T12:59:15.938Z,52.39
2019-03-09T13:04:21.842Z,52.23
2019-03-09T13:09:27.905Z,52.93
2019-03-09T13:14:36.425Z,52.85
2019-03-09T13:19:42.526Z,55.77
2019-03-09T13:24:48.618Z,56.51
2019-03-09T13:29:59.355Z,55.23
2019-03-09T13:35:05.288Z,54.45
2019-03-09T13:40:12.089Z,52.74
2019-03-09T13:45:21.036Z,51.45
2019-03-09T13:50:28.954Z,50.85
2019-03-09T13:55:34.749Z,51.32
2019-03-09T14:00:41.071Z,51.29
2019-03-09T14:05:47.164Z,52.43
2019-03-09T14:10:53.410Z,51.34
2019-03-09T14:16:00.638Z,50.59
2019-03-09T14:21:07.939Z,50.07
2019-03-09T14:26:15.000Z,53.57
2019-03-09T14:31:21.482Z,53.70
2019-03-09T14:36:29.293Z,54.91
2019-03-09T14:41:35.121Z,54.56
2019-03-09T14:46:41.870Z,55.07
2019-03-09T14:51:49.513Z,56.21
2019-03-09T14:56:55.814Z,54.44
2019-03-09T15:02:02.417Z,53.37
2019-03-09T15:07:10.097Z,54.01
2019-03-09T15:12:18.217Z,53.37
2019-03-09T15:17:24.384Z,52.16
2019-03-09T15:22:30.084Z,51.72
2019-03-09T15:27:37.262Z,52.30
2019-03-09T15:32:43.172Z,51.87
2019-03-09T15:37:48.907Z,51.27
2019-03-09T15:42:55.726Z,50.76
2019-03-09T15:48:05.221Z,51.15
2019-03-09T15:53:12.342Z,50.79
2019-03-09T15:58:18.624Z,50.48
2019-03-09T16:03:27.039Z,49.92
2019-03-09T16:08:35.925Z,49.48
2019-03-09T16:13:42.244Z,49.40
2019-03-09T16:18:50.508Z,50.13
2019-03-09T16:23:56.966Z,49.32
2019-03-09T16:29:03.079Z,50.12
2019-03-09T16:34:10.106Z,51.08
2019-03-09T16:39:17.011Z,51.28
2019-03-09T16:44:22.880Z,51.53
2019-03-09T16:49:28.949Z,51.62
2019-03-09T16:54:37.225Z,51.82
2019-03-09T16:59:44.388Z,51.88
2019-03-09T17:11:14.876Z,50.94
2019-03-09T17:16:24.062Z,50.61
2019-03-09T17:21:30.101Z,50.66
2019-03-09T17:26:37.054Z,50.25
2019-03-09T17:31:43.122Z,50.35
2019-03-09T17:36:53.748Z,50.06
2019-03-09T17:42:24.666Z,49.94
2019-03-09T17:47:43.915Z,49.99
2019-03-09T17:52:53.525Z,49.59
2019-03-09T17:57:59.292Z,51.22
2019-03-09T18:03:09.893Z,51.92
2019-03-09T18:08:15.637Z,53.60
2019-03-09T18:13:25.021Z,54.21
2019-03-09T18:18:33.820Z,54.06
2019-03-09T18:23:41.673Z,55.18
2019-03-09T18:28:49.469Z,56.16
2019-03-09T18:33:58.523Z,57.47
2019-03-09T18:39:08.775Z,58.34
2019-03-09T18:44:17.492Z,58.96
2019-03-09T18:49:28.117Z,62.29
2019-03-09T18:54:35.666Z,62.21
2019-03-09T18:59:45.181Z,61.31
2019-03-09T19:04:53.605Z,60.64
2019-03-09T19:10:08.217Z,60.38
2019-03-09T19:15:21.739Z,61.33
2019-03-09T19:20:29.472Z,61.53
2019-03-09T19:25:36.069Z,61.39
2019-03-09T19:30:42.234Z,63.27
2019-03-09T19:35:52.801Z,64.55
2019-03-09T19:41:03.227Z,64.33
2019-03-09T19:46:20.070Z,63.94
2019-03-09T19:51:29.584Z,61.77
2019-03-09T19:56:38.632Z,60.83
2019-03-09T20:01:51.934Z,60.84
2019-03-09T20:06:58.635Z,60.53
2019-03-09T20:12:14.753Z,60.13
2019-03-09T20:17:33.738Z,61.25
2019-03-09T20:22:56.234Z,59.50
2019-03-09T20:28:21.094Z,60.42
2019-03-09T20:33:27.247Z,60.10
2019-03-09T20:38:34.328Z,59.03
2019-03-09T20:43:43.527Z,57.41
2019-03-09T20:48:55.005Z,56.48
2019-03-09T20:54:03.837Z,56.45
2019-03-09T20:59:15.116Z,57.32
2019-03-09T21:04:23.693Z,56.67
2019-03-09T21:09:37.180Z,56.32
2019-03-09T21:14:46.089Z,56.25
2019-03-09T21:19:53.958Z,55.44
2019-03-09T21:25:03.957Z,55.08
2019-03-09T21:30:21.457Z,54.29
2019-03-09T21:35:29.755Z,54.29
2019-03-09T21:40:36.559Z,54.62
2019-03-09T21:45:45.748Z,53.68
2019-03-09T21:50:52.592Z,53.67
2019-03-09T21:56:03.618Z,53.48
2019-03-09T22:01:53.582Z,53.50
2019-03-09T22:06:44.069Z,54.26
2019-03-09T22:11:50.098Z,54.54
2019-03-09T22:16:57.647Z,54.51
2019-03-09T22:22:17.206Z,54.27
2019-03-09T22:27:25.860Z,54.57
2019-03-09T22:32:38.305Z,55.21
2019-03-09T22:37:44.177Z,55.57
2019-03-09T22:42:51.135Z,56.57
2019-03-09T22:47:58.052Z,56.57
2019-03-09T22:53:06.816Z,56.56
2019-03-09T22:58:13.543Z,56.25
2019-03-09T23:03:20.291Z,56.29
2019-03-09T23:08:26.329Z,55.83
2019-03-09T23:13:32.044Z,55.38
2019-03-09T23:18:37.930Z,55.46
2019-03-09T23:23:47.238Z,54.66
2019-03-09T23:28:53.240Z,54.66
2019-03-09T23:33:59.268Z,54.31
2019-03-09T23:39:10.129Z,53.85
2019-03-09T23:44:16.319Z,53.51
2019-03-09T23:49:21.940Z,53.61
2019-03-09T23:54:27.505Z,53.55
2019-03-09T23:59:33.480Z,53.77
